Time;durP1;ratioP1;P1;durP2;ratioP2;P2;SDS_P1;SDS_P2;PMS_P1;PMS_P2;Temp;Humidity;BMP_temperature;BMP_pressure;BME280_temperature;BME280_humidity;BME280_pressure;Samples;Min_cycle;Max_cycle;Signal;HPM_P1;HPM_P2
2021/06/23 00:01:14;;;;;;;58.17;2.63;;;17.80;80.50;;;;;;5073396;28;20530;-73
2021/06/23 00:03:43;;;;;;;58.90;3.07;;;17.70;81.00;;;;;;5073134;28;20561;-73
2021/06/23 00:06:10;;;;;;;58.07;2.70;;;17.70;81.40;;;;;;5073288;28;20454;-73
2021/06/23 00:08:37;;;;;;;59.00;3.00;;;17.70;81.40;;;;;;5073006;28;20520;-73
2021/06/23 00:11:05;;;;;;;58.27;2.50;;;17.70;82.40;;;;;;5072798;28;20478;-73
2021/06/23 00:13:33;;;;;;;58.40;2.80;;;17.70;83.30;;;;;;5072949;28;20896;-73
2021/06/23 00:16:00;;;;;;;58.50;3.53;;;17.70;82.90;;;;;;5072453;28;20447;-73
2021/06/23 00:18:27;;;;;;;58.60;2.70;;;17.70;83.20;;;;;;5072990;28;20488;-74
2021/06/23 00:20:56;;;;;;;58.47;2.70;;;17.70;83.80;;;;;;5072902;28;20527;-73
2021/06/23 00:23:23;;;;;;;58.23;2.60;;;17.70;85.10;;;;;;5072529;28;20467;-73
2021/06/23 00:25:49;;;;;;;59.20;3.10;;;17.70;86.30;;;;;;5072707;28;20492;-73
2021/06/23 00:28:16;;;;;;;58.70;2.70;;;17.70;86.60;;;;;;5072908;28;20530;-73
2021/06/23 00:30:43;;;;;;;58.13;2.40;;;17.70;86.90;;;;;;5072761;28;20490;-73
2021/06/23 00:33:16;;;;;;;58.30;2.67;;;17.70;87.80;;;;;;5072355;28;20500;-73
2021/06/23 00:35:43;;;;;;;58.07;2.50;;;17.70;88.20;;;;;;5073059;28;20526;-73
2021/06/23 00:38:11;;;;;;;58.03;2.50;;;17.70;89.30;;;;;;5072453;28;20491;-73
2021/06/23 00:40:38;;;;;;;58.40;2.70;;;17.70;89.80;;;;;;5072674;28;20536;-73
2021/06/23 00:43:05;;;;;;;58.43;2.70;;;17.80;90.40;;;;;;5072291;28;20558;-73
2021/06/23 00:45:33;;;;;;;58.27;2.53;;;17.80;90.40;;;;;;5072896;28;20453;-73
2021/06/23 00:48:01;;;;;;;57.70;2.70;;;17.80;90.20;;;;;;5072693;28;20454;-73
2021/06/23 00:50:29;;;;;;;58.60;2.70;;;17.80;90.30;;;;;;5072398;28;20490;-74
2021/06/23 00:52:56;;;;;;;58.03;2.80;;;17.80;89.30;;;;;;5072135;28;20510;-74
2021/06/23 00:55:26;;;;;;;58.40;2.53;;;17.80;88.80;;;;;;5072257;28;20542;-74
2021/06/23 00:57:55;;;;;;;57.97;2.70;;;17.80;88.20;;;;;;5072277;28;20582;-74
2021/06/23 01:00:25;;;;;;;57.97;2.70;;;17.80;88.70;;;;;;5072229;28;20551;-75
2021/06/23 01:02:52;;;;;;;58.40;2.50;;;17.80;89.20;;;;;;5071908;28;20503;-74
2021/06/23 01:05:20;;;;;;;58.50;2.97;;;17.80;90.00;;;;;;5072131;28;20450;-75
2021/06/23 01:07:48;;;;;;;58.17;2.70;;;17.80;90.60;;;;;;5072133;28;20959;-75
2021/06/23 01:10:16;;;;;;;58.17;2.80;;;17.80;91.10;;;;;;5072069;28;20542;-75
2021/06/23 01:13:07;;;;;;;58.27;2.70;;;17.80;91.20;;;;;;5071681;28;20502;-75
2021/06/23 01:15:34;;;;;;;58.43;2.60;;;17.70;91.70;;;;;;5071851;28;20861;-74
2021/06/23 01:18:02;;;;;;;58.43;2.80;;;17.70;92.30;;;;;;5072026;28;20497;-74
2021/06/23 01:20:29;;;;;;;58.20;2.80;;;17.70;92.60;;;;;;5072089;28;20457;-75
2021/06/23 01:22:58;;;;;;;58.40;2.67;;;17.70;92.70;;;;;;5071538;28;20550;-74
2021/06/23 01:25:24;;;;;;;58.57;2.80;;;17.70;93.20;;;;;;5071673;28;20550;-75
2021/06/23 01:27:51;;;;;;;58.13;2.67;;;17.60;93.70;;;;;;5070856;28;20479;-75
2021/06/23 01:30:19;;;;;;;58.47;2.90;;;17.60;94.00;;;;;;5072052;28;20534;-75
2021/06/23 01:32:47;;;;;;;59.20;4.57;;;17.60;94.50;;;;;;5071533;28;20471;-75
2021/06/23 01:35:15;;;;;;;58.27;2.87;;;17.60;95.00;;;;;;5071880;28;20460;-74
2021/06/23 01:37:42;;;;;;;57.97;2.70;;;17.60;95.40;;;;;;5071797;28;20577;-75
2021/06/23 01:40:11;;;;;;;59.10;2.70;;;17.60;95.80;;;;;;5071703;28;20542;-74
2021/06/23 01:42:39;;;;;;;58.57;3.10;;;17.60;96.10;;;;;;5071167;28;20506;-74
2021/06/23 01:45:07;;;;;;;58.20;2.73;;;17.50;96.00;;;;;;5071678;28;20452;-75
2021/06/23 01:47:34;;;;;;;58.30;2.70;;;17.50;96.30;;;;;;5071595;28;20443;-75
2021/06/23 01:50:01;;;;;;;57.97;2.67;;;17.50;96.60;;;;;;5071683;28;20486;-74
2021/06/23 01:52:28;;;;;;;58.17;2.60;;;17.50;96.90;;;;;;5071242;28;20478;-75
2021/06/23 01:54:55;;;;;;;58.50;2.80;;;17.50;97.70;;;;;;5071477;28;20486;-73
2021/06/23 01:57:23;;;;;;;58.27;2.67;;;17.50;98.00;;;;;;5071388;28;20497;-75
2021/06/23 01:59:50;;;;;;;58.30;2.60;;;17.50;98.00;;;;;;5071521;28;20538;-75
2021/06/23 02:02:29;;;;;;;57.77;2.50;;;17.50;98.00;;;;;;5071306;28;20561;-74
2021/06/23 02:05:03;;;;;;;58.17;2.70;;;17.50;97.60;;;;;;5071438;28;20485;-74
2021/06/23 02:07:58;;;;;;;58.57;2.80;;;17.50;97.40;;;;;;5071281;28;20449;-75
2021/06/23 02:10:44;;;;;;;58.50;2.90;;;17.50;97.10;;;;;;5071507;28;20477;-74
2021/06/23 02:14:09;;;;;;;58.00;2.60;;;17.50;97.00;;;;;;5063447;28;20569;-75
2021/06/23 02:16:38;;;;;;;57.77;2.70;;;17.50;96.40;;;;;;5071537;28;20542;-75
2021/06/23 02:19:06;;;;;;;58.60;2.80;;;17.50;96.20;;;;;;5071390;28;20578;-75
2021/06/23 02:21:37;;;;;;;58.33;2.67;;;17.40;95.90;;;;;;5071060;28;20545;-75
2021/06/23 02:24:06;;;;;;;58.17;2.70;;;17.40;95.50;;;;;;5071160;28;20481;-74
2021/06/23 02:26:33;;;;;;;58.13;2.90;;;17.30;95.20;;;;;;5071018;28;20555;-75
2021/06/23 02:29:00;;;;;;;58.60;2.60;;;17.30;95.30;;;;;;5071424;28;20810;-74
2021/06/23 02:31:29;;;;;;;58.13;2.70;;;17.20;95.40;;;;;;5070867;28;20481;-74
2021/06/23 02:33:58;;;;;;;57.83;3.00;;;17.20;95.60;;;;;;5071234;28;20560;-75
2021/06/23 02:36:26;;;;;;;58.23;2.63;;;17.10;95.90;;;;;;5071190;28;20483;-74
2021/06/23 02:38:54;;;;;;;58.80;2.80;;;17.10;96.00;;;;;;5072468;28;20493;-75
2021/06/23 02:41:21;;;;;;;58.00;2.60;;;17.10;96.30;;;;;;5074883;28;20868;-74
2021/06/23 02:43:48;;;;;;;58.30;2.63;;;17.00;96.80;;;;;;5074788;28;20899;-75
2021/06/23 02:46:15;;;;;;;57.97;2.60;;;17.10;97.30;;;;;;5074897;28;20484;-75
2021/06/23 02:48:42;;;;;;;58.23;2.57;;;17.10;97.70;;;;;;5074665;28;20541;-74
2021/06/23 02:51:20;;;;;;;58.17;2.60;;;17.00;98.30;;;;;;5074480;28;20488;-74
2021/06/23 02:53:48;;;;;;;59.00;3.10;;;17.00;99.00;;;;;;5074622;28;20513;-74
2021/06/23 02:56:16;;;;;;;58.07;2.80;;;17.00;99.60;;;;;;5074733;28;20536;-75
2021/06/23 02:58:45;;;;;;;58.60;3.20;;;17.10;99.90;;;;;;5074623;28;20489;-74
2021/06/23 03:01:13;;;;;;;58.60;2.70;;;17.10;99.90;;;;;;5074420;28;20540;-74
2021/06/23 03:03:41;;;;;;;58.43;2.60;;;17.10;99.90;;;;;;5073957;28;20501;-75
2021/06/23 03:06:09;;;;;;;58.57;2.53;;;17.10;99.90;;;;;;5074731;28;20878;-74
2021/06/23 03:08:38;;;;;;;57.97;2.60;;;17.10;99.90;;;;;;5074393;28;20541;-75
2021/06/23 03:11:05;;;;;;;58.33;2.43;;;17.00;99.90;;;;;;5074188;28;20502;-74
2021/06/23 03:13:33;;;;;;;58.40;2.73;;;17.00;99.90;;;;;;5074101;28;20512;-74
2021/06/23 03:16:00;;;;;;;58.67;3.10;;;17.00;99.90;;;;;;5074158;28;20450;-74
2021/06/23 03:18:29;;;;;;;58.50;2.70;;;16.90;99.80;;;;;;5073939;28;20482;-74
2021/06/23 03:20:56;;;;;;;58.40;2.80;;;16.90;99.70;;;;;;5074033;28;20465;-74
2021/06/23 03:23:23;;;;;;;58.40;2.97;;;17.00;99.90;;;;;;5073929;28;20503;-74
2021/06/23 03:25:51;;;;;;;58.20;2.80;;;16.90;99.90;;;;;;5073903;28;20464;-74
2021/06/23 03:28:18;;;;;;;58.47;2.70;;;17.00;99.90;;;;;;5074027;28;20536;-74
2021/06/23 03:30:45;;;;;;;58.70;2.90;;;17.00;99.90;;;;;;5073907;28;20880;-74
2021/06/23 03:33:11;;;;;;;58.27;2.60;;;17.00;99.90;;;;;;5073773;28;20473;-74
2021/06/23 03:35:38;;;;;;;58.20;2.60;;;17.00;99.90;;;;;;5074066;28;20541;-75
2021/06/23 03:38:06;;;;;;;58.17;2.90;;;17.00;99.90;;;;;;5073881;28;20517;-74
2021/06/23 03:40:32;;;;;;;58.00;2.97;;;17.00;99.90;;;;;;5073820;28;20490;-74
2021/06/23 03:43:01;;;;;;;59.10;2.90;;;17.10;99.90;;;;;;5073456;28;20557;-74
2021/06/23 03:45:28;;;;;;;58.53;2.70;;;17.10;99.90;;;;;;5073571;28;20477;-75
2021/06/23 03:47:55;;;;;;;58.37;2.60;;;17.10;99.90;;;;;;5073632;28;20548;-75
2021/06/23 03:50:22;;;;;;;59.10;2.97;;;17.10;99.90;;;;;;5072906;28;20492;-74
2021/06/23 03:52:49;;;;;;;58.60;2.90;;;17.10;99.90;;;;;;5073299;28;20466;-75
2021/06/23 03:55:25;;;;;;;58.47;3.07;;;17.10;99.90;;;;;;5073521;28;20446;-74
2021/06/23 03:57:53;;;;;;;58.50;2.80;;;17.10;99.90;;;;;;5073273;28;20829;-75
2021/06/23 04:00:24;;;;;;;58.13;2.60;;;17.10;99.90;;;;;;5073617;28;20449;-74
2021/06/23 04:02:51;;;;;;;58.40;2.80;;;17.10;99.90;;;;;;5072970;28;20550;-74
2021/06/23 04:05:19;;;;;;;58.13;2.50;;;17.10;99.90;;;;;;5073219;28;20456;-74
2021/06/23 04:07:46;;;;;;;58.60;2.90;;;17.00;99.90;;;;;;5073384;28;20541;-74
2021/06/23 04:10:14;;;;;;;58.37;2.70;;;17.00;99.90;;;;;;5073009;28;20950;-74
2021/06/23 04:12:41;;;;;;;57.97;2.80;;;17.10;99.90;;;;;;5072933;28;20470;-75
2021/06/23 04:15:10;;;;;;;58.37;2.73;;;17.10;99.90;;;;;;5073371;28;20859;-75
2021/06/23 04:17:38;;;;;;;58.57;2.63;;;17.10;99.90;;;;;;5073015;28;20454;-74
2021/06/23 04:20:07;;;;;;;58.40;2.70;;;17.10;99.90;;;;;;5073153;28;20860;-75
2021/06/23 04:22:34;;;;;;;58.47;3.10;;;17.10;99.90;;;;;;5072634;28;20467;-74
2021/06/23 04:25:01;;;;;;;58.67;3.43;;;17.10;99.90;;;;;;5072749;28;20545;-74
2021/06/23 04:27:28;;;;;;;58.07;2.50;;;17.10;99.90;;;;;;5073065;28;20462;-75
2021/06/23 04:29:55;;;;;;;58.23;2.60;;;17.20;99.90;;;;;;5072893;28;20816;-75
2021/06/23 04:32:22;;;;;;;58.10;2.70;;;17.10;99.90;;;;;;5072262;28;20483;-74
2021/06/23 04:34:50;;;;;;;58.30;2.50;;;17.10;99.90;;;;;;5072799;28;20544;-73
2021/06/23 04:37:17;;;;;;;58.13;2.70;;;17.10;99.90;;;;;;5072599;28;20536;-74
2021/06/23 04:39:44;;;;;;;57.90;2.53;;;17.10;99.90;;;;;;5072444;28;20528;-74
2021/06/23 04:42:11;;;;;;;58.20;2.70;;;17.10;99.90;;;;;;5072516;28;21061;-73
2021/06/23 04:44:38;;;;;;;59.97;2.80;;;17.10;99.90;;;;;;5072640;28;20537;-74
2021/06/23 04:47:05;;;;;;;58.27;2.60;;;17.00;99.90;;;;;;5072585;28;20538;-74
2021/06/23 04:49:32;;;;;;;58.03;2.80;;;17.00;99.90;;;;;;5072370;28;20440;-72
2021/06/23 04:52:00;;;;;;;57.87;2.40;;;17.00;99.90;;;;;;5071978;28;20541;-73
2021/06/23 04:54:27;;;;;;;58.27;2.80;;;17.00;99.90;;;;;;5071856;28;20923;-73
2021/06/23 04:56:54;;;;;;;58.13;2.50;;;17.00;99.90;;;;;;5072745;28;20537;-75
2021/06/23 04:59:21;;;;;;;58.30;2.83;;;16.90;99.90;;;;;;5072348;28;20521;-74
2021/06/23 05:01:47;;;;;;;58.50;3.03;;;16.90;99.90;;;;;;5071881;28;20542;-74
2021/06/23 05:04:14;;;;;;;58.17;2.47;;;16.90;99.90;;;;;;5072196;28;20447;-74
2021/06/23 05:06:41;;;;;;;58.33;3.20;;;16.90;99.90;;;;;;5072078;28;20537;-75
2021/06/23 05:09:09;;;;;;;58.37;2.60;;;16.90;99.90;;;;;;5072456;28;20541;-74
2021/06/23 05:11:36;;;;;;;58.17;2.60;;;16.90;99.90;;;;;;5071873;28;20923;-74
2021/06/23 05:14:05;;;;;;;58.67;3.90;;;16.90;99.90;;;;;;5072002;28;20822;-73
2021/06/23 05:16:32;;;;;;;58.80;3.47;;;17.00;99.90;;;;;;5072031;28;20450;-73
2021/06/23 05:18:59;;;;;;;58.50;3.07;;;17.00;99.90;;;;;;5072344;28;20577;-73
2021/06/23 05:21:27;;;;;;;58.13;2.80;;;17.00;99.90;;;;;;5066403;28;20463;-74
2021/06/23 05:23:54;;;;;;;58.80;3.80;;;17.00;99.90;;;;;;5068590;28;21127;-74
2021/06/23 05:26:22;;;;;;;58.07;2.60;;;17.00;99.90;;;;;;5071776;28;20628;-74
2021/06/23 05:28:49;;;;;;;58.40;2.80;;;17.00;99.90;;;;;;5071889;28;20482;-74
2021/06/23 05:31:15;;;;;;;58.40;3.23;;;17.10;99.90;;;;;;5071687;28;20452;-74
2021/06/23 05:33:42;;;;;;;58.20;2.80;;;17.30;99.90;;;;;;5071536;28;20573;-75
2021/06/23 05:36:09;;;;;;;58.10;2.93;;;17.40;99.90;;;;;;5072122;28;20549;-74
2021/06/23 05:38:36;;;;;;;58.27;3.03;;;17.40;99.90;;;;;;5071920;28;20542;-74
2021/06/23 05:41:03;;;;;;;58.17;2.80;;;17.40;99.90;;;;;;5071558;28;20529;-74
2021/06/23 05:43:32;;;;;;;58.20;2.83;;;17.50;99.90;;;;;;5071539;28;20581;-74
2021/06/23 05:45:59;;;;;;;58.27;2.57;;;17.50;99.90;;;;;;5071706;28;20517;-73
2021/06/23 05:48:26;;;;;;;57.97;2.70;;;17.50;99.90;;;;;;5071606;28;20461;-74
2021/06/23 05:50:52;;;;;;;58.30;2.70;;;17.50;99.90;;;;;;5071529;28;20465;-74
2021/06/23 05:53:20;;;;;;;58.20;2.90;;;17.50;99.60;;;;;;5071303;28;20557;-74
2021/06/23 05:55:46;;;;;;;57.97;2.47;;;17.50;99.60;;;;;;5071883;28;20534;-74
2021/06/23 05:58:14;;;;;;;58.10;2.40;;;17.50;99.80;;;;;;5071536;28;20447;-74
2021/06/23 06:00:42;;;;;;;57.87;2.57;;;17.50;99.90;;;;;;5071328;28;20482;-74
2021/06/23 06:03:09;;;;;;;58.03;2.50;;;17.50;99.90;;;;;;5071110;28;20553;-74
2021/06/23 06:05:36;;;;;;;57.87;2.30;;;17.60;99.90;;;;;;5071666;28;20493;-74
2021/06/23 06:08:03;;;;;;;58.07;2.40;;;17.60;99.90;;;;;;5071695;28;20799;-74
2021/06/23 06:10:32;;;;;;;57.97;2.60;;;17.60;99.90;;;;;;5071547;28;20898;-74
2021/06/23 06:12:59;;;;;;;57.97;2.40;;;17.70;99.20;;;;;;5071217;28;20482;-74
2021/06/23 06:15:26;;;;;;;58.50;2.60;;;17.70;98.80;;;;;;5075327;28;20485;-74
2021/06/23 06:17:54;;;;;;;58.00;2.40;;;17.70;97.80;;;;;;5075586;28;20450;-74
2021/06/23 06:20:21;;;;;;;57.97;2.30;;;17.70;96.70;;;;;;5075371;28;20522;-74
2021/06/23 06:22:48;;;;;;;57.97;2.50;;;17.80;95.90;;;;;;5075090;28;20470;-73
2021/06/23 06:25:15;;;;;;;58.03;2.40;;;17.80;94.80;;;;;;5075144;28;20557;-74
2021/06/23 06:27:42;;;;;;;58.40;2.47;;;17.80;92.40;;;;;;5075140;28;20508;-74
2021/06/23 06:30:10;;;;;;;58.20;2.60;;;17.90;90.40;;;;;;5075229;28;20487;-74
2021/06/23 06:32:37;;;;;;;58.07;2.63;;;17.90;87.10;;;;;;5074975;28;20903;-74
2021/06/23 06:35:06;;;;;;;58.80;3.17;;;18.00;82.30;;;;;;5074729;28;20483;-74
2021/06/23 06:37:33;;;;;;;58.17;2.67;;;18.10;81.70;;;;;;5074894;28;20491;-75
2021/06/23 06:40:00;;;;;;;57.83;2.50;;;18.20;81.10;;;;;;5075004;28;20566;-75
2021/06/23 06:42:27;;;;;;;58.10;2.70;;;18.40;78.60;;;;;;5074596;28;20539;-75
2021/06/23 06:44:54;;;;;;;58.10;2.57;;;18.50;72.20;;;;;;5075012;28;20825;-75
2021/06/23 06:47:21;;;;;;;58.87;3.13;;;18.60;63.80;;;;;;5074959;28;20878;-75
2021/06/23 06:49:47;;;;;;;57.73;2.30;;;18.70;62.10;;;;;;5074735;28;20526;-75
2021/06/23 06:52:16;;;;;;;58.40;2.50;;;18.70;52.80;;;;;;5074429;28;20506;-75
2021/06/23 06:54:43;;;;;;;57.80;2.23;;;18.80;49.50;;;;;;5074741;28;20909;-75
2021/06/23 06:57:09;;;;;;;58.03;2.50;;;18.90;45.90;;;;;;5074518;28;20531;-75
2021/06/23 06:59:36;;;;;;;58.03;2.50;;;18.90;31.30;;;;;;5075463;28;20902;-75
2021/06/23 07:02:04;;;;;;;58.37;2.90;;;19.00;30.00;;;;;;5074350;28;20550;-75
2021/06/23 07:04:30;;;;;;;57.97;2.90;;;19.10;20.30;;;;;;5074612;28;20531;-75
2021/06/23 07:06:57;;;;;;;58.07;2.53;;;19.10;16.40;;;;;;5074547;28;20476;-75
2021/06/23 07:09:26;;;;;;;58.17;2.63;;;19.20;15.00;;;;;;5074419;28;20522;-75
2021/06/23 07:11:52;;;;;;;58.20;2.60;;;19.20;10.50;;;;;;5073913;28;20975;-75
2021/06/23 07:14:20;;;;;;;57.67;2.40;;;19.30;3.00;;;;;;5074521;28;20471;-75
2021/06/23 07:16:47;;;;;;;58.07;2.37;;;19.20;1.00;;;;;;5074344;28;20531;-75
2021/06/23 07:19:14;;;;;;;58.67;2.57;;;19.30;1.00;;;;;;5074351;28;20614;-75
2021/06/23 07:21:42;;;;;;;57.77;2.60;;;19.30;1.00;;;;;;5073959;28;20538;-76
2021/06/23 07:24:09;;;;;;;57.97;2.10;;;19.30;1.00;;;;;;5073749;28;20510;-76
2021/06/23 07:26:38;;;;;;;58.07;2.23;;;19.30;1.00;;;;;;5073256;28;20832;-75
2021/06/23 07:29:06;;;;;;;58.17;2.50;;;19.30;1.00;;;;;;5074296;28;20927;-75
2021/06/23 07:31:42;;;;;;;57.77;2.40;;;19.30;1.00;;;;;;5073802;28;20552;-76
2021/06/23 07:37:03;;;;;;;57.87;2.50;;;19.50;1.00;;;;;;5048104;28;20437;-77
2021/06/23 07:39:29;;;;;;;57.93;2.30;;;19.50;1.00;;;;;;5074093;28;21063;-77
2021/06/23 07:41:58;;;;;;;57.90;2.23;;;19.60;1.00;;;;;;5073929;28;20484;-77
2021/06/23 07:44:28;;;;;;;58.60;2.40;;;19.70;1.00;;;;;;5073808;28;20541;-77
2021/06/23 07:46:58;;;;;;;58.17;2.47;;;19.70;1.00;;;;;;5073758;28;20553;-77
2021/06/23 07:49:28;;;;;;;58.07;2.37;;;19.70;1.00;;;;;;5073669;28;20456;-77
2021/06/23 07:51:59;;;;;;;57.77;2.40;;;19.80;1.00;;;;;;5073600;28;20817;-77
2021/06/23 07:54:36;;;;;;;57.63;2.00;;;19.80;1.00;;;;;;5073791;28;20483;-77
2021/06/23 08:08:23;;;;;;;58.17;2.50;;;20.00;1.00;;;;;;5074460;28;20907;-77
2021/06/23 08:10:53;;;;;;;58.37;2.80;;;20.10;1.00;;;;;;5074188;28;20447;-77
2021/06/23 08:13:22;;;;;;;58.27;2.50;;;20.20;1.00;;;;;;5073560;28;20555;-77
2021/06/23 08:15:50;;;;;;;57.87;2.40;;;20.40;1.00;;;;;;5071194;28;20462;-77
2021/06/23 08:18:20;;;;;;;57.67;2.60;;;20.50;1.00;;;;;;5073464;28;20445;-77
2021/06/23 08:20:48;;;;;;;57.70;2.40;;;20.60;1.00;;;;;;5073975;28;20546;-77
2021/06/23 08:23:15;;;;;;;57.97;2.60;;;20.70;1.00;;;;;;5073249;28;20506;-77
2021/06/23 08:25:42;;;;;;;57.93;2.60;;;20.80;1.00;;;;;;5074063;28;20560;-77
2021/06/23 08:28:09;;;;;;;57.80;2.67;;;21.00;1.00;;;;;;5073447;28;20454;-77
2021/06/23 08:30:37;;;;;;;58.40;2.30;;;21.20;1.00;;;;;;5073521;28;20448;-77
2021/06/23 08:33:05;;;;;;;57.63;2.37;;;21.40;1.00;;;;;;5072493;28;20581;-76
2021/06/23 08:35:32;;;;;;;59.37;2.47;;;21.60;1.00;;;;;;5073200;28;20881;-76
2021/06/23 08:37:59;;;;;;;57.80;2.37;;;21.60;1.00;;;;;;5071297;28;20451;-76
2021/06/23 08:40:26;;;;;;;58.20;2.37;;;21.70;1.00;;;;;;5072430;28;21090;-76
2021/06/23 08:42:53;;;;;;;58.37;2.30;;;21.80;1.00;;;;;;5072337;28;20546;-76
2021/06/23 08:45:20;;;;;;;57.53;1.97;;;21.90;1.00;;;;;;5072450;28;20538;-76
2021/06/23 08:47:49;;;;;;;58.13;2.90;;;21.90;1.00;;;;;;5072909;28;20463;-76
2021/06/23 08:50:18;;;;;;;58.07;2.40;;;22.00;1.00;;;;;;5072580;28;20474;-76
2021/06/23 08:52:45;;;;;;;58.20;2.30;;;22.10;1.00;;;;;;5072123;28;20497;-76
2021/06/23 08:55:18;;;;;;;57.97;2.47;;;22.30;1.00;;;;;;5072363;28;21009;-76
2021/06/23 08:57:46;;;;;;;58.13;2.20;;;22.40;1.00;;;;;;5072266;28;20454;-76
2021/06/23 09:00:14;;;;;;;57.73;2.20;;;22.60;1.00;;;;;;5072356;28;20925;-76
2021/06/23 09:02:41;;;;;;;58.30;2.30;;;22.70;1.00;;;;;;5071799;28;20982;-76
2021/06/23 09:05:12;;;;;;;57.77;2.07;;;22.70;1.00;;;;;;5072287;28;20479;-75
2021/06/23 09:07:42;;;;;;;57.73;2.00;;;22.70;1.00;;;;;;5072570;28;20451;-76
2021/06/23 09:10:33;;;;;;;58.07;2.17;;;22.80;1.00;;;;;;5072154;28;20447;-75
2021/06/23 09:13:19;;;;;;;58.17;2.40;;;22.90;1.00;;;;;;5071817;28;20470;-76
2021/06/23 09:15:50;;;;;;;58.50;2.70;;;23.00;1.00;;;;;;5072086;28;20532;-76
2021/06/23 09:18:20;;;;;;;57.77;2.20;;;23.20;1.00;;;;;;5051898;28;21005;-76
2021/06/23 09:20:51;;;;;;;58.03;2.37;;;23.10;1.00;;;;;;5051716;28;20581;-76
2021/06/23 09:23:18;;;;;;;58.30;2.30;;;23.10;1.00;;;;;;5051927;28;20517;-76
2021/06/23 09:25:46;;;;;;;58.07;2.30;;;23.20;1.00;;;;;;5051755;28;20496;-76
2021/06/23 09:28:17;;;;;;;58.10;2.37;;;23.30;1.00;;;;;;5051908;28;20853;-76
2021/06/23 09:30:46;;;;;;;57.87;2.07;;;23.50;1.00;;;;;;5052260;28;20483;-76
2021/06/23 09:33:15;;;;;;;58.07;2.27;;;23.60;1.00;;;;;;5051491;28;21175;-76
2021/06/23 09:35:44;;;;;;;57.93;2.27;;;23.80;1.00;;;;;;5051950;28;20506;-76
2021/06/23 09:38:32;;;;;;;57.97;2.30;;;24.10;1.00;;;;;;5051836;28;20535;-76
2021/06/23 09:40:59;;;;;;;57.87;2.10;;;24.30;1.00;;;;;;5045257;28;20484;-76
2021/06/23 09:43:35;;;;;;;58.07;2.40;;;24.40;1.00;;;;;;5051225;28;20468;-76
2021/06/23 09:46:17;;;;;;;57.87;2.30;;;24.50;1.00;;;;;;5051486;28;20539;-76
2021/06/23 09:48:44;;;;;;;57.63;2.10;;;24.50;1.00;;;;;;5051062;28;20487;-76
2021/06/23 09:51:16;;;;;;;58.10;2.10;;;24.60;1.00;;;;;;5051406;28;20797;-76
2021/06/23 09:53:45;;;;;;;57.87;2.00;;;24.80;1.00;;;;;;5051432;28;20507;-76
2021/06/23 09:56:30;;;;;;;57.97;2.17;;;25.00;1.00;;;;;;5051440;28;20531;-76
2021/06/23 09:58:58;;;;;;;57.87;2.10;;;25.10;1.00;;;;;;5051763;28;20507;-76
2021/06/23 10:01:26;;;;;;;57.57;2.00;;;25.20;1.00;;;;;;5051282;28;20484;-76
2021/06/23 10:03:57;;;;;;;57.77;2.07;;;25.40;1.00;;;;;;5051712;28;20475;-76
2021/06/23 10:06:25;;;;;;;57.87;2.20;;;25.70;1.00;;;;;;5051453;28;20509;-75
2021/06/23 10:09:12;;;;;;;57.83;2.17;;;25.90;1.00;;;;;;5051255;28;20946;-76
2021/06/23 10:11:40;;;;;;;57.77;1.90;;;26.10;1.00;;;;;;5051266;28;20820;-76
2021/06/23 10:14:07;;;;;;;58.00;2.10;;;26.40;1.00;;;;;;5051389;28;20477;-76
2021/06/23 10:16:34;;;;;;;57.63;2.20;;;26.40;1.00;;;;;;5051222;28;20452;-75
2021/06/23 10:19:02;;;;;;;57.87;2.00;;;26.50;1.00;;;;;;5051326;28;20484;-77
2021/06/23 10:21:30;;;;;;;57.53;2.00;;;26.70;1.00;;;;;;5050908;28;20502;-73
2021/06/23 10:23:59;;;;;;;57.80;2.00;;;27.00;1.00;;;;;;5051400;28;20460;-74
2021/06/23 10:26:28;;;;;;;57.67;2.00;;;27.50;1.00;;;;;;5051178;28;21027;-74
2021/06/23 10:28:56;;;;;;;58.20;2.30;;;28.70;1.00;;;;;;5051309;28;20536;-74
2021/06/23 10:31:24;;;;;;;57.27;1.93;;;30.20;1.00;;;;;;5051076;28;20443;-75
2021/06/23 10:33:52;;;;;;;57.57;1.80;;;31.30;1.00;;;;;;5051045;28;20555;-74
2021/06/23 10:36:20;;;;;;;57.43;2.00;;;31.80;1.00;;;;;;5051377;28;20527;-75
2021/06/23 10:38:48;;;;;;;57.47;2.10;;;32.60;1.00;;;;;;5051301;28;20464;-75
2021/06/23 10:41:18;;;;;;;57.60;2.03;;;33.20;1.00;;;;;;5051063;28;20855;-75
2021/06/23 10:44:04;;;;;;;57.67;2.00;;;33.40;1.00;;;;;;5050951;28;20976;-75
2021/06/23 10:46:39;;;;;;;57.47;1.90;;;32.40;1.00;;;;;;5050909;28;20459;-75
2021/06/23 10:49:06;;;;;;;57.47;1.90;;;31.00;1.00;;;;;;5051285;28;20447;-76
2021/06/23 10:51:33;;;;;;;57.73;2.27;;;30.10;1.00;;;;;;5050737;28;20483;-75
2021/06/23 10:54:06;;;;;;;57.87;2.13;;;29.20;1.00;;;;;;5050997;28;20466;-76
2021/06/23 10:56:44;;;;;;;57.80;2.40;;;28.50;1.00;;;;;;5050933;28;20444;-75
2021/06/23 10:59:31;;;;;;;58.40;2.47;;;28.30;1.00;;;;;;5051810;28;20445;-76
2021/06/23 11:02:08;;;;;;;57.73;2.13;;;28.90;1.00;;;;;;5054135;28;20576;-76
2021/06/23 11:05:08;;;;;;;57.80;2.20;;;29.70;1.00;;;;;;5054556;28;20447;-76
2021/06/23 11:07:41;;;;;;;58.07;2.30;;;29.80;1.00;;;;;;5054650;28;20545;-75
2021/06/23 11:10:30;;;;;;;57.70;2.20;;;29.70;1.00;;;;;;5054311;28;20454;-76
2021/06/23 11:13:03;;;;;;;57.90;2.27;;;29.50;1.00;;;;;;5054083;28;20570;-76
2021/06/23 11:15:42;;;;;;;57.67;2.10;;;29.40;1.00;;;;;;5054205;28;20541;-75
2021/06/23 11:18:24;;;;;;;57.77;2.10;;;29.20;1.00;;;;;;5054380;28;20821;-76
2021/06/23 11:20:52;;;;;;;57.37;2.20;;;30.00;1.00;;;;;;5054138;28;20586;-76
2021/06/23 11:23:42;;;;;;;57.47;2.07;;;31.00;1.00;;;;;;5053820;28;20472;-75
2021/06/23 11:26:10;;;;;;;57.57;1.80;;;31.50;1.00;;;;;;5053925;28;20555;-76
2021/06/23 11:28:38;;;;;;;57.43;1.90;;;30.90;1.00;;;;;;5054152;28;20476;-76
2021/06/23 11:31:09;;;;;;;57.70;2.00;;;31.10;1.00;;;;;;5053979;28;20475;-76
2021/06/23 11:33:56;;;;;;;57.60;2.10;;;32.20;1.00;;;;;;5053727;28;20579;-76
2021/06/23 11:36:25;;;;;;;57.40;1.83;;;32.10;1.00;;;;;;5053749;28;20495;-75
2021/06/23 11:38:53;;;;;;;57.57;2.20;;;31.30;1.00;;;;;;5054097;28;20506;-75
2021/06/23 11:41:20;;;;;;;57.47;2.20;;;30.40;1.00;;;;;;5053532;28;20549;-76
2021/06/23 11:43:48;;;;;;;57.47;2.00;;;30.60;1.00;;;;;;5053530;28;20471;-76
2021/06/23 11:46:16;;;;;;;57.17;2.00;;;31.90;1.00;;;;;;5053654;28;20940;-76
2021/06/23 11:48:43;;;;;;;57.27;2.10;;;33.20;1.00;;;;;;5053470;28;20542;-76
2021/06/23 11:51:10;;;;;;;57.17;1.90;;;34.40;1.00;;;;;;5053433;28;20980;-76
2021/06/23 11:53:37;;;;;;;57.23;2.13;;;35.20;1.00;;;;;;5053488;28;20551;-76
2021/06/23 11:56:05;;;;;;;57.17;2.00;;;36.20;1.00;;;;;;5053577;28;20479;-76
2021/06/23 11:58:32;;;;;;;57.20;2.33;;;37.20;1.00;;;;;;5053619;28;20763;-76
2021/06/23 12:01:01;;;;;;;56.77;2.00;;;37.90;1.00;;;;;;5053198;28;20487;-76
2021/06/23 12:03:28;;;;;;;57.70;2.60;;;38.50;1.00;;;;;;5052939;28;20468;-76
2021/06/23 12:05:56;;;;;;;56.97;2.03;;;38.60;1.00;;;;;;5053485;28;20464;-75
2021/06/23 12:08:23;;;;;;;57.00;1.80;;;37.50;1.00;;;;;;5053457;28;20453;-76
2021/06/23 12:10:50;;;;;;;57.37;2.30;;;36.00;1.00;;;;;;5052723;28;20444;-76
2021/06/23 12:13:17;;;;;;;57.40;1.90;;;34.50;1.00;;;;;;5053233;28;20555;-76
2021/06/23 12:15:44;;;;;;;57.43;2.10;;;33.30;1.00;;;;;;5053081;28;20551;-76
2021/06/23 12:18:12;;;;;;;57.43;2.20;;;33.00;1.00;;;;;;5050878;28;20459;-76
2021/06/23 12:20:41;;;;;;;57.30;2.27;;;34.10;1.00;;;;;;5053075;28;20881;-76
2021/06/23 12:23:09;;;;;;;57.27;2.00;;;34.20;1.00;;;;;;5052797;28;20522;-77
2021/06/23 12:25:38;;;;;;;57.50;2.10;;;33.60;1.00;;;;;;5052577;28;20891;-75
2021/06/23 12:28:06;;;;;;;57.37;2.00;;;33.30;1.00;;;;;;5052939;28;20527;-75
2021/06/23 12:30:34;;;;;;;57.20;1.80;;;34.30;1.00;;;;;;5052713;28;20456;-76
2021/06/23 12:33:03;;;;;;;57.00;1.90;;;35.90;1.00;;;;;;5052503;28;20995;-76
2021/06/23 12:35:32;;;;;;;56.97;2.33;;;37.30;1.00;;;;;;5053014;28;20460;-75
2021/06/23 12:37:59;;;;;;;57.10;2.30;;;37.40;1.00;;;;;;5052799;28;20979;-75
2021/06/23 12:40:26;;;;;;;57.07;1.90;;;36.50;1.00;;;;;;5052666;28;20944;-73
2021/06/23 12:42:53;;;;;;;56.83;2.00;;;36.80;1.00;;;;;;5052130;28;20575;-74
2021/06/23 12:45:21;;;;;;;57.03;2.10;;;37.60;1.00;;;;;;5052842;28;20444;-74
2021/06/23 12:47:48;;;;;;;56.97;2.00;;;38.30;1.00;;;;;;5052814;28;20440;-75
2021/06/23 12:50:18;;;;;;;56.87;2.00;;;39.00;1.00;;;;;;5052617;28;20484;-75
2021/06/23 12:52:47;;;;;;;57.03;2.03;;;39.70;1.00;;;;;;5052368;28;20582;-74
2021/06/23 12:55:15;;;;;;;56.87;2.10;;;40.10;1.00;;;;;;5052982;28;20809;-75
2021/06/23 12:57:42;;;;;;;57.07;2.13;;;40.70;1.00;;;;;;5052175;28;20491;-75
2021/06/23 13:00:11;;;;;;;56.80;2.07;;;41.00;1.00;;;;;;5052414;28;20530;-74
2021/06/23 13:02:38;;;;;;;56.90;2.20;;;41.30;1.00;;;;;;5051922;28;20520;-75
2021/06/23 13:05:07;;;;;;;56.57;2.00;;;40.40;1.00;;;;;;5052361;28;20523;-74